createdAt,value
2018-10-12T00:01:03.245Z,77.90
2018-10-12T00:03:32.920Z,77.90
2018-10-12T00:06:02.552Z,77.90
2018-10-12T00:08:32.191Z,78.00
2018-10-12T00:11:01.823Z,78.20
2018-10-12T00:13:31.454Z,78.30
2018-10-12T00:16:01.122Z,78.30
2018-10-12T00:18:30.778Z,78.40
2018-10-12T00:21:00.416Z,78.50
2018-10-12T00:23:30.070Z,78.70
2018-10-12T00:25:59.767Z,78.80
2018-10-12T00:28:29.395Z,78.90
2018-10-12T00:30:59.046Z,79.00
2018-10-12T00:33:28.651Z,79.00
2018-10-12T00:35:58.280Z,79.10
2018-10-12T00:38:27.918Z,79.20
2018-10-12T00:40:57.523Z,79.50
2018-10-12T00:43:27.186Z,79.60
2018-10-12T00:45:56.817Z,79.70
2018-10-12T00:48:26.446Z,79.70
2018-10-12T00:50:56.070Z,79.80
2018-10-12T00:53:25.710Z,79.80
2018-10-12T00:55:55.340Z,79.90
2018-10-12T00:58:24.985Z,79.90
2018-10-12T01:00:54.599Z,80.00
2018-10-12T01:03:24.245Z,80.10
2018-10-12T01:05:53.898Z,80.10
2018-10-12T01:08:23.527Z,80.20
2018-10-12T01:10:53.170Z,80.10
2018-10-12T01:13:22.827Z,80.20
2018-10-12T01:15:52.495Z,80.30
2018-10-12T01:18:22.178Z,80.30
2018-10-12T01:20:51.909Z,80.20
2018-10-12T01:23:21.571Z,80.30
2018-10-12T01:25:51.238Z,80.30
2018-10-12T01:28:20.894Z,80.30
2018-10-12T01:30:50.668Z,80.40
2018-10-12T01:33:20.321Z,80.40
2018-10-12T01:35:49.987Z,80.50
2018-10-12T01:38:19.660Z,80.50
2018-10-12T01:40:49.334Z,80.50
2018-10-12T01:43:18.989Z,80.70
2018-10-12T01:45:48.640Z,80.80
2018-10-12T01:48:18.355Z,80.90
2018-10-12T01:50:47.987Z,81.00
2018-10-12T01:53:17.639Z,80.90
2018-10-12T01:55:47.292Z,81.10
2018-10-12T01:58:16.995Z,81.20
2018-10-12T02:00:46.649Z,81.30
2018-10-12T02:03:16.273Z,81.50
2018-10-12T02:05:45.959Z,81.60
2018-10-12T02:08:15.620Z,81.70
2018-10-12T02:10:45.262Z,81.70
2018-10-12T02:13:15.042Z,81.80
2018-10-12T02:15:44.669Z,81.90
2018-10-12T02:18:14.322Z,81.90
2018-10-12T02:20:43.965Z,82.10
2018-10-12T02:23:13.590Z,82.10
2018-10-12T02:25:43.239Z,82.20
2018-10-12T02:28:12.879Z,82.30
2018-10-12T02:30:42.509Z,82.40
2018-10-12T02:33:12.111Z,82.40
2018-10-12T02:35:41.734Z,82.40
2018-10-12T02:38:11.379Z,82.50
2018-10-12T02:40:41.021Z,82.60
2018-10-12T02:43:10.711Z,82.70
2018-10-12T02:45:40.328Z,82.90
2018-10-12T02:48:09.969Z,82.90
2018-10-12T02:50:39.590Z,82.90
2018-10-12T02:53:09.233Z,83.10
2018-10-12T02:55:38.844Z,83.20
2018-10-12T02:58:08.516Z,83.30
2018-10-12T03:00:38.154Z,83.30
2018-10-12T03:03:07.807Z,83.50
2018-10-12T03:05:37.471Z,83.70
2018-10-12T03:08:07.122Z,83.70
2018-10-12T03:10:36.822Z,83.70
2018-10-12T03:13:06.468Z,83.80
2018-10-12T03:15:36.067Z,83.90
2018-10-12T03:18:05.807Z,84.70
2018-10-12T03:20:35.471Z,84.10
2018-10-12T03:23:05.133Z,84.10
2018-10-12T03:25:34.834Z,84.30
2018-10-12T03:28:15.449Z,84.30
2018-10-12T03:30:45.160Z,84.50
2018-10-12T03:33:14.891Z,84.50
2018-10-12T03:35:44.687Z,84.50
2018-10-12T03:38:14.518Z,84.50
2018-10-12T03:40:44.719Z,84.70
2018-10-12T03:43:14.405Z,84.70
2018-10-12T03:45:44.429Z,84.80
2018-10-12T03:48:14.132Z,85.00
2018-10-12T03:50:43.811Z,85.10
2018-10-12T03:53:13.747Z,85.10
2018-10-12T03:55:43.402Z,85.20
2018-10-12T03:58:13.109Z,85.30
2018-10-12T04:00:42.801Z,85.40
2018-10-12T04:03:12.456Z,85.50
2018-10-12T04:05:42.101Z,85.60
2018-10-12T04:08:11.702Z,85.70
2018-10-12T04:10:41.321Z,85.80
2018-10-12T04:13:10.939Z,85.80
2018-10-12T04:15:40.566Z,85.90
2018-10-12T04:18:10.246Z,85.90
2018-10-12T04:20:39.884Z,85.90
2018-10-12T04:23:09.571Z,85.90
2018-10-12T04:25:39.182Z,86.00
2018-10-12T04:28:08.842Z,86.00
2018-10-12T04:30:38.456Z,86.10
2018-10-12T04:33:08.207Z,86.20
2018-10-12T04:35:37.837Z,86.20
2018-10-12T04:38:07.505Z,86.10
2018-10-12T04:41:17.222Z,86.20
2018-10-12T04:43:48.148Z,86.20
2018-10-12T04:46:21.251Z,86.30
2018-10-12T04:48:51.499Z,86.50
2018-10-12T04:51:23.630Z,86.50
2018-10-12T04:53:53.494Z,86.70
2018-10-12T04:56:23.126Z,86.80
2018-10-12T04:58:52.781Z,86.80
2018-10-12T05:01:22.442Z,86.90
2018-10-12T05:03:52.121Z,87.00
2018-10-12T05:06:21.813Z,87.20
2018-10-12T05:08:51.515Z,87.30
2018-10-12T05:11:21.167Z,87.30
2018-10-12T05:13:50.817Z,87.40
2018-10-12T05:16:20.471Z,87.40
2018-10-12T05:18:50.104Z,87.40
2018-10-12T05:21:19.775Z,87.50
2018-10-12T05:23:49.403Z,87.60
2018-10-12T05:26:19.090Z,87.60
2018-10-12T05:28:48.797Z,87.60
2018-10-12T05:31:18.500Z,87.60
2018-10-12T05:33:48.146Z,87.60
2018-10-12T05:36:17.958Z,87.60
2018-10-12T05:38:47.613Z,87.60
2018-10-12T05:41:17.336Z,87.40
2018-10-12T05:43:47.077Z,87.20
2018-10-12T05:46:16.657Z,87.20
2018-10-12T05:48:57.465Z,87.20
2018-10-12T05:51:27.142Z,87.00
2018-10-12T05:53:56.910Z,87.00
2018-10-12T05:56:31.159Z,86.80
2018-10-12T05:59:01.150Z,86.70
2018-10-12T06:01:30.882Z,86.40
2018-10-12T06:04:00.543Z,86.20
2018-10-12T06:06:30.398Z,85.80
2018-10-12T06:09:00.128Z,85.40
2018-10-12T06:11:29.883Z,85.00
2018-10-12T06:13:59.477Z,84.90
2018-10-12T06:16:29.109Z,84.60
2018-10-12T06:18:58.760Z,84.30
2018-10-12T06:21:28.465Z,84.10
2018-10-12T06:23:58.065Z,83.70
2018-10-12T06:26:27.689Z,83.50
2018-10-12T06:28:57.322Z,83.20
2018-10-12T06:31:26.983Z,83.20
2018-10-12T06:33:56.601Z,82.90
2018-10-12T06:36:26.262Z,82.60
2018-10-12T06:38:55.901Z,82.50
2018-10-12T06:41:25.554Z,82.10
2018-10-12T06:43:55.161Z,81.90
2018-10-12T06:46:24.792Z,81.70
2018-10-12T06:48:54.447Z,81.20
2018-10-12T06:51:24.258Z,81.10
2018-10-12T06:53:53.950Z,81.20
2018-10-12T06:56:23.580Z,81.10
2018-10-12T06:58:53.280Z,80.50
2018-10-12T07:01:22.994Z,80.30
2018-10-12T07:03:52.694Z,80.00
2018-10-12T07:06:22.389Z,80.20
2018-10-12T07:08:52.068Z,80.00
2018-10-12T07:11:21.691Z,80.00
2018-10-12T07:13:51.454Z,79.70
2018-10-12T07:16:22.282Z,79.50
2018-10-12T07:18:52.183Z,79.30
2018-10-12T07:21:21.775Z,79.00
2018-10-12T07:23:51.398Z,78.90
2018-10-12T07:26:21.043Z,78.60
2018-10-12T07:28:50.690Z,78.20
2018-10-12T07:31:20.336Z,77.70
2018-10-12T07:33:49.943Z,77.40
2018-10-12T07:36:19.658Z,77.30
2018-10-12T07:38:49.292Z,77.30
2018-10-12T07:41:19.220Z,76.80
2018-10-12T07:43:48.854Z,76.30
2018-10-12T07:46:18.475Z,76.30
2018-10-12T07:48:48.499Z,75.60
2018-10-12T07:51:18.112Z,75.20
2018-10-12T07:53:47.718Z,75.00
2018-10-12T07:56:17.380Z,74.90
2018-10-12T07:58:47.007Z,74.60
2018-10-12T08:01:16.638Z,74.80
2018-10-12T08:03:46.272Z,74.70
2018-10-12T08:06:15.993Z,74.10
2018-10-12T08:08:45.568Z,73.90
2018-10-12T08:11:15.226Z,73.50
2018-10-12T08:13:44.950Z,73.50
2018-10-12T08:16:14.556Z,72.90
2018-10-12T08:18:44.451Z,72.90
2018-10-12T08:21:14.114Z,72.70
2018-10-12T08:23:43.764Z,72.80
2018-10-12T08:26:13.408Z,72.20
2018-10-12T08:28:43.079Z,72.10
2018-10-12T08:31:12.694Z,71.80
2018-10-12T08:33:42.460Z,71.90
2018-10-12T08:36:12.082Z,71.50
2018-10-12T08:38:41.783Z,71.10
2018-10-12T08:41:11.469Z,71.00
2018-10-12T08:43:41.133Z,70.90
2018-10-12T08:46:10.772Z,70.80
2018-10-12T08:48:40.401Z,70.60
2018-10-12T08:51:10.048Z,70.70
2018-10-12T08:53:39.805Z,71.20
2018-10-12T08:56:09.490Z,70.30
2018-10-12T08:58:39.212Z,69.70
2018-10-12T09:01:08.858Z,69.30
2018-10-12T09:03:38.458Z,68.80
2018-10-12T09:06:08.101Z,68.60
2018-10-12T09:08:37.715Z,68.30
2018-10-12T09:11:07.663Z,68.20
2018-10-12T09:13:37.311Z,68.40
2018-10-12T09:16:07.587Z,68.50
2018-10-12T09:18:37.535Z,68.00
2018-10-12T09:21:07.332Z,66.80
2018-10-12T09:23:37.235Z,66.50
2018-10-12T09:26:07.268Z,66.60
2018-10-12T09:28:36.927Z,66.40
2018-10-12T09:31:07.160Z,66.10
2018-10-12T09:33:36.783Z,66.00
2018-10-12T09:36:06.430Z,65.50
2018-10-12T09:38:36.686Z,65.50
2018-10-12T09:41:06.315Z,64.70
2018-10-12T09:43:36.064Z,64.60
2018-10-12T09:46:05.781Z,64.40
2018-10-12T09:48:35.423Z,64.10
2018-10-12T09:51:05.051Z,63.10
2018-10-12T09:53:34.673Z,62.70
2018-10-12T09:56:04.372Z,62.40
2018-10-12T09:58:33.975Z,61.90
2018-10-12T10:01:08.803Z,61.90
2018-10-12T10:03:43.777Z,61.30
2018-10-12T10:06:13.427Z,60.50
2018-10-12T10:08:43.146Z,59.80
2018-10-12T10:11:12.770Z,59.70
2018-10-12T10:13:42.389Z,59.60
2018-10-12T10:16:12.014Z,59.70
2018-10-12T10:18:41.668Z,59.70
2018-10-12T10:21:11.291Z,58.80
2018-10-12T10:23:40.921Z,58.70
2018-10-12T10:26:10.545Z,58.10
2018-10-12T10:28:40.169Z,58.10
2018-10-12T10:31:09.809Z,57.70
2018-10-12T10:33:39.416Z,57.50
2018-10-12T10:36:09.040Z,57.70
2018-10-12T10:38:38.734Z,57.80
2018-10-12T10:41:08.375Z,57.20
2018-10-12T10:43:38.058Z,56.60
2018-10-12T10:46:07.811Z,56.60
2018-10-12T10:48:37.466Z,56.40
2018-10-12T10:51:07.334Z,56.10
2018-10-12T10:53:37.012Z,56.00
2018-10-12T10:56:06.765Z,55.70
2018-10-12T10:58:36.399Z,55.50
2018-10-12T11:01:06.134Z,54.50
2018-10-12T11:03:35.759Z,54.70
2018-10-12T11:06:05.416Z,53.90
2018-10-12T11:08:35.064Z,53.70
2018-10-12T11:11:04.742Z,53.80
2018-10-12T11:13:34.367Z,53.70
2018-10-12T11:16:04.025Z,53.50
2018-10-12T11:18:33.667Z,52.60
2018-10-12T11:21:03.314Z,52.00
2018-10-12T11:23:32.957Z,51.50
2018-10-12T11:26:02.557Z,52.20
2018-10-12T11:28:32.229Z,51.40
2018-10-12T11:31:01.842Z,51.60
2018-10-12T11:33:31.889Z,51.10
2018-10-12T11:36:01.191Z,50.80
2018-10-12T11:38:30.864Z,50.20
2018-10-12T11:41:00.445Z,50.20
2018-10-12T11:43:35.696Z,49.50
2018-10-12T11:46:05.402Z,48.70
2018-10-12T11:48:35.097Z,48.10
2018-10-12T11:51:04.763Z,47.10
2018-10-12T11:53:34.373Z,46.50
2018-10-12T11:56:04.029Z,45.50
2018-10-12T11:58:33.634Z,46.00
2018-10-12T12:01:03.355Z,45.20
2018-10-12T12:03:32.998Z,44.00
2018-10-12T12:06:02.612Z,43.10
2018-10-12T12:11:09.062Z,40.80
2018-10-12T12:13:38.767Z,34.50
2018-10-12T12:16:08.387Z,32.00
2018-10-12T12:18:38.135Z,30.00
2018-10-12T12:21:07.912Z,28.40
2018-10-12T12:23:37.549Z,26.70
2018-10-12T12:26:07.302Z,25.50
2018-10-12T12:28:36.946Z,25.10
2018-10-12T12:31:06.590Z,24.20
2018-10-12T12:33:36.222Z,23.80
2018-10-12T12:36:07.196Z,23.50
2018-10-12T12:38:36.671Z,23.00
2018-10-12T12:41:06.278Z,22.70
2018-10-12T12:43:35.910Z,22.20
2018-10-12T12:46:05.571Z,21.90
2018-10-12T12:48:35.491Z,21.50
2018-10-12T12:51:04.904Z,21.40
2018-10-12T12:53:34.527Z,21.20
2018-10-12T12:56:04.179Z,21.20
2018-10-12T12:58:33.796Z,21.30
2018-10-12T13:01:03.466Z,21.20
2018-10-12T13:03:33.064Z,20.90
2018-10-12T13:06:02.682Z,20.80
2018-10-12T13:08:32.317Z,20.60
2018-10-12T13:11:01.973Z,20.80
2018-10-12T13:13:31.633Z,20.60
2018-10-12T13:16:01.250Z,20.50
2018-10-12T13:18:30.886Z,20.60
2018-10-12T13:21:00.552Z,20.50
2018-10-12T13:23:30.168Z,20.50
2018-10-12T13:25:59.934Z,20.30
2018-10-12T13:28:30.824Z,20.30
2018-10-12T13:31:00.468Z,20.40
2018-10-12T13:33:30.060Z,20.30
2018-10-12T13:35:59.731Z,21.10
2018-10-12T13:38:29.432Z,20.50
2018-10-12T13:40:59.054Z,20.70
2018-10-12T13:43:28.672Z,20.90
2018-10-12T13:45:58.305Z,20.80
2018-10-12T13:48:27.946Z,20.90
2018-10-12T13:50:57.628Z,21.00
2018-10-12T13:53:27.270Z,20.80
2018-10-12T13:55:56.901Z,21.00
2018-10-12T13:58:26.529Z,21.20
2018-10-12T14:00:56.231Z,21.20
2018-10-12T14:03:25.858Z,21.10
2018-10-12T14:05:55.528Z,21.10
2018-10-12T14:08:25.287Z,20.90
2018-10-12T14:10:54.843Z,21.00
2018-10-12T14:13:24.493Z,21.00
2018-10-12T14:15:54.124Z,21.10
2018-10-12T14:18:23.813Z,20.90
2018-10-12T14:20:53.498Z,21.10
2018-10-12T14:23:23.095Z,21.80
2018-10-12T14:25:52.725Z,21.70
2018-10-12T14:28:22.344Z,21.70
2018-10-12T14:30:51.979Z,21.60
2018-10-12T14:33:21.708Z,21.90
2018-10-12T14:35:51.430Z,22.20
2018-10-12T14:38:21.084Z,22.10
2018-10-12T14:40:50.714Z,22.30
2018-10-12T14:43:20.361Z,22.50
2018-10-12T14:45:49.983Z,22.50
2018-10-12T14:48:19.622Z,22.60
2018-10-12T14:50:49.264Z,22.70
2018-10-12T14:53:18.927Z,22.90
2018-10-12T14:55:48.578Z,23.10
2018-10-12T14:58:18.202Z,23.40
2018-10-12T15:00:47.843Z,23.50
2018-10-12T15:03:17.466Z,23.40
2018-10-12T15:05:47.086Z,24.00
2018-10-12T15:08:16.743Z,24.30
2018-10-12T15:10:46.420Z,24.70
2018-10-12T15:13:17.412Z,25.00
2018-10-12T15:15:47.203Z,25.10
2018-10-12T15:18:16.903Z,26.10
2018-10-12T15:20:46.585Z,27.60
2018-10-12T15:23:16.298Z,29.20
2018-10-12T15:25:45.970Z,30.70
2018-10-12T15:28:15.588Z,32.40
2018-10-12T15:30:45.214Z,33.90
2018-10-12T15:33:14.832Z,35.30
2018-10-12T15:35:44.431Z,36.40
2018-10-12T15:38:14.046Z,37.60
2018-10-12T15:40:43.720Z,38.50
2018-10-12T15:43:13.481Z,39.50
2018-10-12T15:45:43.136Z,40.50
2018-10-12T15:48:12.754Z,41.30
2018-10-12T15:50:42.458Z,42.20
2018-10-12T15:53:12.099Z,43.10
2018-10-12T15:55:41.704Z,43.80
2018-10-12T15:58:11.379Z,44.50
2018-10-12T16:00:41.034Z,45.10
2018-10-12T16:03:10.762Z,45.80
2018-10-12T16:05:40.464Z,46.70
2018-10-12T16:08:10.095Z,48.10
2018-10-12T16:10:39.764Z,48.30
2018-10-12T16:13:09.673Z,49.10
2018-10-12T16:15:39.333Z,50.00
2018-10-12T16:18:08.947Z,50.70
2018-10-12T16:20:38.561Z,50.90
2018-10-12T16:23:08.338Z,51.60
2018-10-12T16:25:59.184Z,52.20
2018-10-12T16:28:28.834Z,52.70
2018-10-12T16:30:58.980Z,53.20
2018-10-12T16:33:28.686Z,53.60
2018-10-12T16:35:59.319Z,54.00
2018-10-12T16:38:28.877Z,54.30
2018-10-12T16:40:58.536Z,54.70
2018-10-12T16:43:28.179Z,55.10
2018-10-12T16:45:57.834Z,55.50
2018-10-12T16:48:29.119Z,55.80
2018-10-12T16:50:58.774Z,56.70
2018-10-12T16:53:28.394Z,56.60
2018-10-12T17:04:27.165Z,58.10
2018-10-12T17:06:56.770Z,58.20
2018-10-12T17:09:26.408Z,58.30
2018-10-12T17:11:56.045Z,58.60
2018-10-12T17:14:25.699Z,58.90
2018-10-12T17:16:55.472Z,59.00
2018-10-12T17:19:25.097Z,59.30
2018-10-12T17:21:54.689Z,59.70
2018-10-12T17:24:24.306Z,60.30
2018-10-12T17:26:53.945Z,60.70
2018-10-12T17:29:23.680Z,61.20
2018-10-12T17:31:53.314Z,61.50
2018-10-12T17:34:22.970Z,61.70
2018-10-12T17:36:52.587Z,62.00
2018-10-12T17:39:22.239Z,62.50
2018-10-12T17:41:51.889Z,63.00
2018-10-12T17:44:21.498Z,63.40
2018-10-12T17:46:51.118Z,63.60
2018-10-12T17:49:20.772Z,63.80
2018-10-12T17:51:50.406Z,64.10
2018-10-12T17:54:20.079Z,64.40
2018-10-12T17:56:49.684Z,64.70
2018-10-12T17:59:19.300Z,65.00
2018-10-12T18:01:48.919Z,65.40
2018-10-12T18:04:18.544Z,65.40
2018-10-12T18:06:48.193Z,65.80
2018-10-12T18:09:17.841Z,66.00
2018-10-12T18:11:47.461Z,66.40
2018-10-12T18:14:17.208Z,66.80
2018-10-12T18:16:46.866Z,67.00
2018-10-12T18:19:17.293Z,67.40
2018-10-12T18:21:47.164Z,67.50
2018-10-12T18:24:22.636Z,67.90
2018-10-12T18:26:53.686Z,67.90
2018-10-12T18:29:23.442Z,68.30
2018-10-12T18:31:53.128Z,68.60
2018-10-12T18:34:22.762Z,69.00
2018-10-12T18:36:52.501Z,69.20
2018-10-12T18:39:22.164Z,69.60
2018-10-12T18:41:51.831Z,69.70
2018-10-12T18:44:21.468Z,70.00
2018-10-12T18:46:51.114Z,70.20
2018-10-12T18:49:20.737Z,70.50
2018-10-12T18:51:50.418Z,70.70
2018-10-12T18:54:20.079Z,71.10
2018-10-12T18:56:49.697Z,71.50
2018-10-12T18:59:19.317Z,71.60
2018-10-12T19:01:48.962Z,71.90
2018-10-12T19:04:18.627Z,72.10
2018-10-12T19:06:48.365Z,73.00
2018-10-12T19:09:17.923Z,72.40
2018-10-12T19:11:47.556Z,72.70
2018-10-12T19:14:17.197Z,72.90
2018-10-12T19:16:46.816Z,73.20
2018-10-12T19:19:16.504Z,73.30
2018-10-12T19:21:46.140Z,73.80
2018-10-12T19:24:16.655Z,74.00
2018-10-12T19:26:46.261Z,74.20
2018-10-12T19:29:15.876Z,74.50
2018-10-12T19:31:45.558Z,74.70
2018-10-12T19:34:15.211Z,74.90
2018-10-12T19:36:44.840Z,75.00
2018-10-12T19:39:14.449Z,75.30
2018-10-12T19:41:44.084Z,75.40
2018-10-12T19:44:13.885Z,75.70
2018-10-12T19:46:43.515Z,75.80
2018-10-12T19:49:13.131Z,76.00
2018-10-12T19:51:42.740Z,76.10
2018-10-12T19:54:12.371Z,76.40
2018-10-12T19:56:41.994Z,76.50
2018-10-12T19:59:11.745Z,76.80
2018-10-12T20:01:41.392Z,76.90
2018-10-12T20:04:11.271Z,77.20
2018-10-12T20:06:40.886Z,77.60
2018-10-12T20:09:12.094Z,77.80
2018-10-12T20:11:42.638Z,78.10
2018-10-12T20:14:12.364Z,78.30
2018-10-12T20:16:42.245Z,78.50
2018-10-12T20:19:11.880Z,78.70
2018-10-12T20:21:41.562Z,78.80
2018-10-12T20:24:11.266Z,79.20
2018-10-12T20:26:40.879Z,79.30
2018-10-12T20:29:10.486Z,79.40
2018-10-12T20:31:40.156Z,79.60
2018-10-12T20:34:09.831Z,79.80
2018-10-12T20:36:39.454Z,80.00
2018-10-12T20:39:10.838Z,80.30
2018-10-12T20:41:40.536Z,80.50
2018-10-12T20:44:10.498Z,80.60
2018-10-12T20:46:40.235Z,80.70
2018-10-12T20:49:09.856Z,80.70
2018-10-12T20:51:39.584Z,81.00
2018-10-12T20:54:09.245Z,81.10
2018-10-12T20:56:38.884Z,81.20
2018-10-12T20:59:08.518Z,81.30
2018-10-12T21:01:38.132Z,81.10
2018-10-12T21:04:07.921Z,81.20
2018-10-12T21:06:37.451Z,81.40
2018-10-12T21:09:08.905Z,81.80
2018-10-12T21:11:38.513Z,82.00
2018-10-12T21:14:08.124Z,82.10
2018-10-12T21:16:37.736Z,82.00
2018-10-12T21:19:07.344Z,82.00
2018-10-12T21:21:37.040Z,82.30
2018-10-12T21:24:06.749Z,82.60
2018-10-12T21:26:36.371Z,82.50
2018-10-12T21:29:06.026Z,82.90
2018-10-12T21:31:35.633Z,83.30
2018-10-12T21:34:05.253Z,83.40
2018-10-12T21:36:34.874Z,83.60
2018-10-12T21:39:05.670Z,83.80
2018-10-12T21:41:35.567Z,84.10
2018-10-12T21:44:05.176Z,84.30
2018-10-12T21:46:34.866Z,84.50
2018-10-12T21:49:04.492Z,84.60
2018-10-12T21:51:34.116Z,84.50
2018-10-12T21:54:03.748Z,84.50
2018-10-12T21:56:33.346Z,84.70
2018-10-12T21:59:02.944Z,84.90
2018-10-12T22:01:32.590Z,85.30
2018-10-12T22:04:02.224Z,85.50
2018-10-12T22:06:31.844Z,85.70
2018-10-12T22:09:07.083Z,85.80
2018-10-12T22:11:36.787Z,86.00
2018-10-12T22:14:06.466Z,86.00
2018-10-12T22:16:36.101Z,86.10
2018-10-12T22:19:05.917Z,86.00
2018-10-12T22:21:35.540Z,86.10
2018-10-12T22:24:05.178Z,86.20
2018-10-12T22:26:34.796Z,86.30
2018-10-12T22:29:04.420Z,86.40
2018-10-12T22:31:34.036Z,86.40
2018-10-12T22:34:03.642Z,86.50
2018-10-12T22:36:33.262Z,86.40
2018-10-12T22:39:03.015Z,86.60
2018-10-12T22:41:32.639Z,86.60
2018-10-12T22:44:02.286Z,86.70
2018-10-12T22:46:32.737Z,86.70
2018-10-12T22:49:02.391Z,86.70
2018-10-12T22:51:31.992Z,86.80
2018-10-12T22:54:01.671Z,87.00
2018-10-12T22:56:31.296Z,87.00
2018-10-12T22:59:00.896Z,87.20
2018-10-12T23:01:30.495Z,87.30
2018-10-12T23:04:00.227Z,87.30
2018-10-12T23:06:29.875Z,87.40
2018-10-12T23:08:59.494Z,87.40
2018-10-12T23:11:29.144Z,87.40
2018-10-12T23:13:58.790Z,87.60
2018-10-12T23:16:28.403Z,87.60
2018-10-12T23:18:58.017Z,87.40
2018-10-12T23:21:27.621Z,87.60
2018-10-12T23:23:57.270Z,87.70
2018-10-12T23:26:26.884Z,88.00
2018-10-12T23:28:56.499Z,87.90
2018-10-12T23:31:26.147Z,87.90
2018-10-12T23:34:12.346Z,87.90
2018-10-12T23:36:41.945Z,88.10
2018-10-12T23:39:11.593Z,88.20
2018-10-12T23:41:41.233Z,88.30
2018-10-12T23:44:10.855Z,88.90
2018-10-12T23:46:40.455Z,88.60
2018-10-12T23:49:10.067Z,88.70
2018-10-12T23:51:39.683Z,89.00
2018-10-12T23:54:09.312Z,88.90
2018-10-12T23:56:38.964Z,88.90
2018-10-12T23:59:08.613Z,89.00
